Time;durP1;ratioP1;P1;durP2;ratioP2;P2;SDS_P1;SDS_P2;PMS_P1;PMS_P2;Temp;Humidity;BMP_temperature;BMP_pressure;BME280_temperature;BME280_humidity;BME280_pressure;Samples;Min_cycle;Max_cycle;Signal;HPM_P1;HPM_P2
2021/10/22 00:00:04;;;;;;;13.87;2.40;;;7.00;89.70;;;;;;5019047;28;20648;-89
2021/10/22 00:02:30;;;;;;;13.93;2.87;;;7.00;89.90;;;;;;5036725;28;20210;-89
2021/10/22 00:04:55;;;;;;;13.53;2.53;;;7.00;89.80;;;;;;5019023;28;20585;-90
2021/10/22 00:07:21;;;;;;;13.60;2.23;;;7.00;89.90;;;;;;5019005;28;20193;-89
2021/10/22 00:09:47;;;;;;;13.67;2.40;;;7.00;90.10;;;;;;5036595;28;20203;-88
2021/10/22 00:12:13;;;;;;;11.03;2.00;;;7.00;89.70;;;;;;5019510;28;20264;-89
2021/10/22 00:14:39;;;;;;;6.03;2.07;;;7.10;89.30;;;;;;5018911;28;20300;-89
2021/10/22 00:17:04;;;;;;;12.33;2.30;;;7.20;89.30;;;;;;5018936;28;20258;-87
2021/10/22 00:19:32;;;;;;;13.60;2.80;;;7.20;89.50;;;;;;5036578;28;20180;-90
2021/10/22 00:21:58;;;;;;;13.63;2.20;;;7.10;89.60;;;;;;5018670;28;20187;-90
2021/10/22 00:24:24;;;;;;;10.00;3.57;;;7.00;89.70;;;;;;5018597;28;20251;-90
2021/10/22 00:26:50;;;;;;;12.17;2.13;;;7.00;90.50;;;;;;5018678;28;20204;-89
2021/10/22 00:29:15;;;;;;;12.30;2.43;;;7.00;90.20;;;;;;5036341;28;20176;-90
2021/10/22 00:31:41;;;;;;;7.37;2.07;;;6.90;90.10;;;;;;5036001;28;20551;-91
2021/10/22 00:34:07;;;;;;;10.07;2.30;;;6.90;89.80;;;;;;5035883;28;20616;-89
2021/10/22 00:36:32;;;;;;;16.23;4.73;;;6.90;90.00;;;;;;5018436;28;20291;-89
2021/10/22 00:38:58;;;;;;;17.77;2.23;;;6.90;90.10;;;;;;5018119;28;20175;-89
2021/10/22 00:41:25;;;;;;;13.13;2.40;;;6.90;90.00;;;;;;5017989;28;20214;-89
2021/10/22 00:43:51;;;;;;;11.90;2.43;;;6.90;90.20;;;;;;5017845;28;20215;-89
2021/10/22 00:46:16;;;;;;;12.60;1.97;;;7.00;90.20;;;;;;5017989;28;20182;-88
2021/10/22 00:48:42;;;;;;;13.27;2.83;;;7.00;90.30;;;;;;5018076;28;20688;-88
2021/10/22 00:51:11;;;;;;;10.73;2.37;;;7.00;90.20;;;;;;5035259;28;20178;-91
2021/10/22 00:53:37;;;;;;;13.53;2.33;;;6.90;90.10;;;;;;5035667;28;20249;-90
2021/10/22 00:56:06;;;;;;;8.73;2.33;;;7.00;90.40;;;;;;5017981;28;20556;-88
2021/10/22 00:58:34;;;;;;;14.03;2.73;;;7.00;90.50;;;;;;5018122;28;20210;-88
2021/10/22 01:00:59;;;;;;;5.53;1.90;;;7.00;90.20;;;;;;5018117;28;20190;-87
2021/10/22 01:03:25;;;;;;;14.73;3.57;;;7.00;90.60;;;;;;5035582;28;20205;-88
2021/10/22 01:05:51;;;;;;;5.80;1.47;;;7.00;90.80;;;;;;5017840;28;20172;-89
2021/10/22 01:08:17;;;;;;;13.27;3.60;;;7.00;91.00;;;;;;5035970;28;20280;-90
2021/10/22 01:10:43;;;;;;;6.87;1.70;;;7.00;90.90;;;;;;5018040;28;20208;-91
2021/10/22 01:13:08;;;;;;;7.07;1.70;;;7.00;90.80;;;;;;5018077;28;20211;-87
2021/10/22 01:15:35;;;;;;;14.30;2.67;;;7.00;90.80;;;;;;5017922;28;20180;-90
2021/10/22 01:18:02;;;;;;;9.60;1.80;;;7.00;91.00;;;;;;5035137;28;20219;-90
2021/10/22 01:20:28;;;;;;;6.97;1.87;;;7.00;90.90;;;;;;5035435;28;20176;-87
2021/10/22 01:22:55;;;;;;;6.33;2.00;;;7.10;91.10;;;;;;5018052;28;20183;-89
2021/10/22 01:25:25;;;;;;;16.47;2.10;;;7.10;90.90;;;;;;5017208;28;20700;-90
2021/10/22 01:27:52;;;;;;;10.57;1.90;;;7.00;90.80;;;;;;5017354;28;20200;-89
2021/10/22 01:30:20;;;;;;;6.47;1.50;;;7.00;90.80;;;;;;5034932;28;20184;-90
2021/10/22 01:32:49;;;;;;;3.43;1.43;;;7.00;90.80;;;;;;5017377;28;20190;-89
2021/10/22 01:35:15;;;;;;;6.80;1.93;;;7.00;90.60;;;;;;5017047;28;20188;-89
2021/10/22 01:37:41;;;;;;;5.93;1.83;;;7.00;90.50;;;;;;5016916;28;20259;-90
2021/10/22 01:40:08;;;;;;;12.47;1.80;;;7.00;90.20;;;;;;5017389;28;20686;-87
2021/10/22 01:42:34;;;;;;;6.83;1.80;;;7.00;90.40;;;;;;5035047;28;20177;-89
2021/10/22 01:45:00;;;;;;;8.97;1.90;;;7.10;90.10;;;;;;5017114;28;20797;-89
2021/10/22 01:47:26;;;;;;;13.10;2.20;;;7.10;89.90;;;;;;5017595;28;20619;-90
2021/10/22 01:49:52;;;;;;;15.93;2.10;;;7.10;90.30;;;;;;5016988;28;20176;-89
2021/10/22 01:52:18;;;;;;;8.70;1.67;;;7.10;90.40;;;;;;5016953;28;20184;-88
2021/10/22 01:54:44;;;;;;;7.47;1.80;;;7.20;90.40;;;;;;5034543;28;20227;-89
2021/10/22 01:57:11;;;;;;;8.93;1.70;;;7.10;90.10;;;;;;5034528;28;20200;-90
2021/10/22 01:59:37;;;;;;;13.13;1.70;;;7.10;90.40;;;;;;5016707;28;20184;-89
2021/10/22 02:02:03;;;;;;;6.87;1.83;;;7.10;90.50;;;;;;5015798;28;20181;-89
2021/10/22 02:04:30;;;;;;;5.40;1.50;;;7.10;90.30;;;;;;5016553;28;20581;-90
2021/10/22 02:06:55;;;;;;;6.47;1.70;;;7.20;90.20;;;;;;5016516;28;20202;-89
2021/10/22 02:09:21;;;;;;;6.47;1.53;;;7.10;89.90;;;;;;5016550;28;20176;-89
2021/10/22 02:11:47;;;;;;;7.03;1.70;;;7.20;90.40;;;;;;5016645;28;20176;-89
2021/10/22 02:14:15;;;;;;;8.93;1.67;;;7.10;90.20;;;;;;5034199;28;20264;-90
2021/10/22 02:16:41;;;;;;;8.93;1.70;;;7.10;90.50;;;;;;5016674;28;20176;-88
2021/10/22 02:19:07;;;;;;;11.17;1.83;;;7.10;90.50;;;;;;5016729;28;20180;-89
2021/10/22 02:21:33;;;;;;;4.63;1.33;;;7.10;90.30;;;;;;5016725;28;20233;-90
2021/10/22 02:23:58;;;;;;;12.67;2.37;;;7.10;90.20;;;;;;5034210;28;20563;-89
2021/10/22 02:26:24;;;;;;;8.87;1.80;;;7.10;90.40;;;;;;5016721;28;20588;-90
2021/10/22 02:28:50;;;;;;;11.53;1.87;;;7.20;90.40;;;;;;5016228;28;20672;-89
2021/10/22 02:31:16;;;;;;;10.27;1.70;;;7.20;90.70;;;;;;5016132;28;20177;-90
2021/10/22 02:33:42;;;;;;;7.80;2.10;;;7.20;90.70;;;;;;5016312;28;20187;-89
2021/10/22 02:36:08;;;;;;;11.43;1.80;;;7.10;90.60;;;;;;5016386;28;20184;-90
2021/10/22 02:38:34;;;;;;;14.67;2.20;;;7.20;90.40;;;;;;5016027;28;20200;-89
2021/10/22 02:40:59;;;;;;;4.77;1.00;;;7.20;90.00;;;;;;5016252;28;20644;-89
2021/10/22 02:43:25;;;;;;;10.63;3.67;;;7.20;90.20;;;;;;5016122;28;20200;-89
2021/10/22 02:45:51;;;;;;;7.17;1.70;;;7.20;90.20;;;;;;5033558;28;20225;-89
2021/10/22 02:48:17;;;;;;;5.57;1.77;;;7.30;89.70;;;;;;5016273;28;20207;-89
2021/10/22 02:50:43;;;;;;;6.47;1.83;;;7.30;89.90;;;;;;5015836;28;20183;-89
2021/10/22 02:53:08;;;;;;;8.37;2.10;;;7.20;89.60;;;;;;5015991;28;20523;-89
2021/10/22 02:55:34;;;;;;;8.03;2.13;;;7.20;89.70;;;;;;5033581;28;20226;-90
2021/10/22 02:58:00;;;;;;;10.50;1.83;;;7.30;89.70;;;;;;5015755;28;20315;-89
2021/10/22 03:00:26;;;;;;;13.87;2.07;;;7.20;89.70;;;;;;5015805;28;20203;-91
2021/10/22 03:02:51;;;;;;;7.07;1.60;;;7.30;89.40;;;;;;5015751;28;20175;-90
2021/10/22 03:05:17;;;;;;;8.37;1.70;;;7.20;89.30;;;;;;5015829;28;20203;-89
2021/10/22 03:07:43;;;;;;;4.53;1.17;;;7.30;89.50;;;;;;5015787;28;20203;-88
2021/10/22 03:10:09;;;;;;;7.17;1.90;;;7.30;89.00;;;;;;5015887;28;20547;-91
2021/10/22 03:12:35;;;;;;;8.73;1.87;;;7.30;89.20;;;;;;5016974;28;20614;-90
2021/10/22 03:15:05;;;;;;;8.70;2.10;;;7.20;88.80;;;;;;5020062;28;20176;-90
2021/10/22 03:17:31;;;;;;;10.50;1.67;;;7.20;89.40;;;;;;5019685;28;20212;-90
2021/10/22 03:19:57;;;;;;;11.70;1.43;;;7.20;89.50;;;;;;5020013;28;20640;-90
2021/10/22 03:22:23;;;;;;;4.50;1.40;;;7.20;89.10;;;;;;5019664;28;20660;-89
2021/10/22 03:24:48;;;;;;;12.10;1.63;;;7.20;89.00;;;;;;5019457;28;20221;-88
2021/10/22 03:27:15;;;;;;;9.53;1.73;;;7.20;89.00;;;;;;5019336;28;20291;-89
2021/10/22 03:29:42;;;;;;;10.70;1.73;;;7.30;88.80;;;;;;5019375;28;20175;-89
2021/10/22 03:32:08;;;;;;;10.47;2.03;;;7.20;89.00;;;;;;5037299;28;20165;-88
2021/10/22 03:34:33;;;;;;;4.43;1.60;;;7.30;88.90;;;;;;5019623;28;20183;-90
2021/10/22 03:36:59;;;;;;;13.73;1.60;;;7.30;89.40;;;;;;5019529;28;20663;-89
2021/10/22 03:39:25;;;;;;;7.80;1.60;;;7.20;88.80;;;;;;5019512;28;20183;-89
2021/10/22 03:41:50;;;;;;;13.70;2.30;;;7.20;88.50;;;;;;5037079;28;20633;-89
2021/10/22 03:44:16;;;;;;;10.90;2.47;;;7.20;88.30;;;;;;5019757;28;20200;-90
2021/10/22 03:46:42;;;;;;;12.97;2.43;;;7.20;88.10;;;;;;5019105;28;20203;-89
2021/10/22 03:49:07;;;;;;;6.67;1.80;;;7.10;87.80;;;;;;5019657;28;20215;-88
2021/10/22 03:51:33;;;;;;;5.90;1.60;;;7.20;88.30;;;;;;5019328;28;20555;-89
2021/10/22 03:53:59;;;;;;;8.03;2.73;;;7.10;88.40;;;;;;5018955;28;20205;-90
2021/10/22 03:56:25;;;;;;;8.90;1.77;;;7.10;88.10;;;;;;5037116;28;20207;-90
2021/10/22 03:58:51;;;;;;;10.83;2.97;;;7.10;87.70;;;;;;5019072;28;20200;-90
2021/10/22 04:01:17;;;;;;;7.70;2.00;;;7.10;88.20;;;;;;5018908;28;20276;-89
2021/10/22 04:03:43;;;;;;;10.60;2.27;;;7.10;88.20;;;;;;5018757;28;20363;-89
2021/10/22 04:06:09;;;;;;;6.23;1.80;;;7.10;88.20;;;;;;5018820;28;20675;-89
2021/10/22 04:08:34;;;;;;;11.80;2.80;;;7.10;88.30;;;;;;5018759;28;20193;-89
2021/10/22 04:11:00;;;;;;;10.67;1.80;;;7.10;88.00;;;;;;5018663;28;20583;-89
2021/10/22 04:13:26;;;;;;;9.07;2.20;;;7.10;88.00;;;;;;5018781;28;20173;-89
2021/10/22 04:15:52;;;;;;;8.97;2.10;;;7.20;87.50;;;;;;5018465;28;20179;-88
2021/10/22 04:18:18;;;;;;;11.80;2.50;;;7.20;87.50;;;;;;5018527;28;20290;-90
2021/10/22 04:20:44;;;;;;;7.57;1.70;;;7.20;87.30;;;;;;5018499;28;20177;-89
2021/10/22 04:23:09;;;;;;;15.40;2.47;;;7.20;87.70;;;;;;5018467;28;20271;-89
2021/10/22 04:25:36;;;;;;;6.43;1.80;;;7.30;87.30;;;;;;5017842;28;20177;-89
2021/10/22 04:28:04;;;;;;;4.57;1.60;;;7.30;87.60;;;;;;5018318;28;20581;-90
2021/10/22 04:30:30;;;;;;;6.17;2.33;;;7.30;86.60;;;;;;5036032;28;20208;-90
2021/10/22 04:32:56;;;;;;;4.13;1.80;;;7.30;86.80;;;;;;5018383;28;20181;-89
2021/10/22 04:35:21;;;;;;;3.77;1.10;;;7.30;87.10;;;;;;5018550;28;20176;-90
2021/10/22 04:40:33;;;;;;;12.90;2.27;;;7.40;87.00;;;;;;5015430;28;20235;-89
2021/10/22 04:43:07;;;;;;;12.20;2.87;;;7.40;86.80;;;;;;5035955;28;20206;-90
2021/10/22 04:45:35;;;;;;;8.53;1.40;;;7.40;87.50;;;;;;5036179;28;20406;-89
2021/10/22 04:48:02;;;;;;;8.80;2.13;;;7.40;87.40;;;;;;5018349;28;20220;-91
2021/10/22 04:50:28;;;;;;;8.07;2.23;;;7.40;88.40;;;;;;5035687;28;20180;-89
2021/10/22 04:52:54;;;;;;;7.47;2.17;;;7.30;88.50;;;;;;5018164;28;20259;-89
2021/10/22 04:55:21;;;;;;;14.37;2.10;;;7.30;88.30;;;;;;5036061;28;20258;-89
2021/10/22 04:57:48;;;;;;;11.67;4.13;;;7.30;88.90;;;;;;5017776;28;20196;-90
2021/10/22 05:00:14;;;;;;;10.70;2.67;;;7.30;88.30;;;;;;5018139;28;20188;-89
2021/10/22 05:02:40;;;;;;;8.57;2.33;;;7.40;87.90;;;;;;5017781;28;20184;-89
2021/10/22 05:05:06;;;;;;;11.97;2.93;;;7.40;87.70;;;;;;5017589;28;20292;-89
2021/10/22 05:07:32;;;;;;;14.07;2.33;;;7.50;87.60;;;;;;5017536;28;20227;-90
2021/10/22 05:09:57;;;;;;;13.23;3.10;;;7.50;87.60;;;;;;5017545;28;20183;-89
2021/10/22 05:12:24;;;;;;;7.03;1.80;;;7.50;87.80;;;;;;5017641;28;20645;-90
2021/10/22 05:14:50;;;;;;;10.90;2.30;;;7.50;87.40;;;;;;5035148;28;20165;-89
2021/10/22 05:17:16;;;;;;;13.70;2.03;;;7.50;87.20;;;;;;5035196;28;20261;-89
2021/10/22 05:19:41;;;;;;;13.57;2.67;;;7.50;87.60;;;;;;5035171;28;20187;-88
2021/10/22 05:22:07;;;;;;;10.37;1.90;;;7.50;88.00;;;;;;5018023;28;20671;-90
2021/10/22 05:24:33;;;;;;;15.47;2.73;;;7.40;88.00;;;;;;5017383;28;20293;-90
2021/10/22 05:26:58;;;;;;;14.73;2.43;;;7.50;88.40;;;;;;5017315;28;20265;-91
2021/10/22 05:29:24;;;;;;;8.40;1.50;;;7.50;88.20;;;;;;5017851;28;20188;-89
2021/10/22 05:31:50;;;;;;;6.23;2.67;;;7.50;87.50;;;;;;5017304;28;20179;-90
2021/10/22 05:34:16;;;;;;;13.03;2.47;;;7.50;87.90;;;;;;5017333;28;20211;-89
2021/10/22 05:36:42;;;;;;;8.93;2.07;;;7.60;87.40;;;;;;5016204;28;20232;-91
2021/10/22 05:39:08;;;;;;;11.57;2.23;;;7.70;87.50;;;;;;5017470;28;20180;-89
2021/10/22 05:41:33;;;;;;;10.53;1.90;;;7.60;87.50;;;;;;5016776;28;20603;-89
2021/10/22 05:43:59;;;;;;;18.70;2.40;;;7.70;87.30;;;;;;5016755;28;20232;-90
2021/10/22 05:46:24;;;;;;;20.13;2.53;;;7.60;87.20;;;;;;5017190;28;20181;-89
2021/10/22 05:48:50;;;;;;;10.77;2.17;;;7.60;87.40;;;;;;5034408;28;20193;-90
2021/10/22 05:51:16;;;;;;;14.47;2.77;;;7.60;86.80;;;;;;5034351;28;20175;-90
2021/10/22 05:53:42;;;;;;;11.10;2.67;;;7.70;86.90;;;;;;5034377;28;20545;-89
2021/10/22 05:56:10;;;;;;;15.23;3.40;;;7.70;86.50;;;;;;5016708;28;20240;-90
2021/10/22 05:58:36;;;;;;;8.20;2.10;;;7.70;86.30;;;;;;5034504;28;20204;-89
2021/10/22 06:01:05;;;;;;;11.03;3.03;;;7.80;86.30;;;;;;5016669;28;20272;-90
2021/10/22 06:03:30;;;;;;;10.30;2.47;;;7.80;86.20;;;;;;5016553;28;20255;-89
2021/10/22 06:05:57;;;;;;;14.17;2.87;;;7.90;85.70;;;;;;5034184;28;20173;-90
2021/10/22 06:08:23;;;;;;;14.07;2.73;;;7.90;85.50;;;;;;5034186;28;20676;-89
2021/10/22 06:10:49;;;;;;;14.07;2.40;;;7.80;85.50;;;;;;5016258;28;20230;-90
2021/10/22 06:13:15;;;;;;;4.33;1.70;;;7.90;85.70;;;;;;5016447;28;20665;-89
2021/10/22 06:15:41;;;;;;;9.30;2.40;;;7.90;85.60;;;;;;5016360;28;20183;-88
2021/10/22 06:18:07;;;;;;;8.53;2.10;;;8.00;85.80;;;;;;5016127;28;20212;-88
2021/10/22 06:20:46;;;;;;;8.00;2.23;;;7.90;86.10;;;;;;5016637;28;20200;-90
2021/10/22 06:25:42;;;;;;;9.97;2.73;;;8.00;85.90;;;;;;5033947;28;20179;-89
2021/10/22 06:28:10;;;;;;;11.13;2.50;;;8.00;86.10;;;;;;5016089;28;20227;-89
2021/10/22 06:30:36;;;;;;;6.87;2.50;;;8.00;85.90;;;;;;5033735;28;20230;-89
2021/10/22 06:33:02;;;;;;;7.67;1.97;;;8.00;85.50;;;;;;5033776;28;20180;-89
2021/10/22 06:35:28;;;;;;;8.67;2.40;;;8.20;85.10;;;;;;5016039;28;20176;-89
2021/10/22 06:37:55;;;;;;;7.67;1.73;;;8.10;85.80;;;;;;5016082;28;20243;-89
2021/10/22 06:40:22;;;;;;;11.07;2.13;;;8.20;85.10;;;;;;5016154;28;20645;-89
2021/10/22 06:42:48;;;;;;;20.13;2.00;;;8.20;85.60;;;;;;5016172;28;20177;-89
2021/10/22 06:45:14;;;;;;;7.57;2.23;;;8.20;85.80;;;;;;5033852;28;20223;-89
2021/10/22 06:47:41;;;;;;;10.73;2.33;;;8.20;86.30;;;;;;5033424;28;20227;-90
2021/10/22 06:50:07;;;;;;;9.93;2.37;;;8.20;85.80;;;;;;5016036;28;20192;-89
2021/10/22 06:52:33;;;;;;;18.43;2.83;;;8.20;86.00;;;;;;5015932;28;20202;-89
2021/10/22 06:54:59;;;;;;;10.90;2.93;;;8.20;86.40;;;;;;5016200;28;20184;-88
2021/10/22 06:57:25;;;;;;;12.73;2.67;;;8.20;85.90;;;;;;5015809;28;20682;-89
2021/10/22 06:59:51;;;;;;;12.67;2.53;;;8.20;86.10;;;;;;5015904;28;20204;-88
2021/10/22 07:02:17;;;;;;;14.90;2.87;;;8.30;86.10;;;;;;5033963;28;20524;-88
2021/10/22 07:04:50;;;;;;;13.40;2.40;;;8.30;86.10;;;;;;5033446;28;20212;-89
2021/10/22 07:07:16;;;;;;;15.80;2.77;;;8.30;85.70;;;;;;5015791;28;20310;-88
2021/10/22 07:09:46;;;;;;;6.30;1.90;;;8.30;86.20;;;;;;5015801;28;20181;-89
2021/10/22 07:12:13;;;;;;;11.70;2.97;;;8.20;86.50;;;;;;5015934;28;20665;-89
2021/10/22 07:14:49;;;;;;;12.17;3.47;;;8.10;86.90;;;;;;5016097;28;20243;-89
2021/10/22 07:17:15;;;;;;;12.17;2.97;;;8.10;86.90;;;;;;5015608;28;20680;-90
2021/10/22 07:19:41;;;;;;;15.87;2.57;;;8.20;86.50;;;;;;5015698;28;20617;-89
2021/10/22 07:22:13;;;;;;;6.17;2.10;;;8.20;86.20;;;;;;5015695;28;20234;-90
2021/10/22 07:24:39;;;;;;;11.70;2.00;;;8.20;86.10;;;;;;5015642;28;20548;-89
2021/10/22 07:27:05;;;;;;;16.03;2.80;;;8.30;86.00;;;;;;5016342;28;20196;-89
2021/10/22 07:29:31;;;;;;;11.33;2.37;;;8.30;86.00;;;;;;5015744;28;20545;-89
2021/10/22 07:31:57;;;;;;;12.53;2.37;;;8.30;85.70;;;;;;5015695;28;20546;-89
2021/10/22 07:34:23;;;;;;;14.43;2.90;;;8.40;85.60;;;;;;5015558;28;20181;-89
2021/10/22 07:36:51;;;;;;;7.43;1.93;;;8.40;85.50;;;;;;5033379;28;20184;-89
2021/10/22 07:39:18;;;;;;;11.07;2.80;;;8.50;85.40;;;;;;5015548;28;20184;-89
2021/10/22 07:41:44;;;;;;;5.40;1.47;;;8.60;85.10;;;;;;5015546;28;20268;-89
2021/10/22 07:44:11;;;;;;;7.67;2.20;;;8.60;84.90;;;;;;5015270;28;20351;-89
2021/10/22 07:46:42;;;;;;;14.33;2.63;;;8.60;85.40;;;;;;5015308;28;20184;-89
2021/10/22 07:49:09;;;;;;;11.17;2.93;;;8.60;85.50;;;;;;5015436;28;20176;-89
2021/10/22 07:51:35;;;;;;;7.93;2.10;;;8.60;84.40;;;;;;5015250;28;20173;-90
2021/10/22 07:54:01;;;;;;;11.97;2.03;;;8.60;85.30;;;;;;5033069;28;20188;-88
2021/10/22 07:56:26;;;;;;;5.17;1.60;;;8.50;85.90;;;;;;5015480;28;20183;-89
2021/10/22 07:58:52;;;;;;;8.47;2.33;;;8.40;86.00;;;;;;5015369;28;20661;-90
2021/10/22 08:01:19;;;;;;;9.27;3.03;;;8.40;86.10;;;;;;5019040;28;20607;-91
2021/10/22 08:03:46;;;;;;;9.30;2.27;;;8.50;85.80;;;;;;5019159;28;20228;-90
2021/10/22 08:06:14;;;;;;;8.63;1.67;;;8.40;85.90;;;;;;5036928;28;20207;-89
2021/10/22 08:08:42;;;;;;;10.87;2.40;;;8.60;86.10;;;;;;5018873;28;20210;-90
2021/10/22 08:11:08;;;;;;;8.83;1.93;;;8.60;85.90;;;;;;5019299;28;20181;-90
2021/10/22 08:13:33;;;;;;;3.93;1.60;;;8.70;85.70;;;;;;5036822;28;20589;-90
2021/10/22 08:15:59;;;;;;;7.90;1.90;;;8.70;85.90;;;;;;5018893;28;20180;-90
2021/10/22 08:18:26;;;;;;;8.40;2.20;;;8.80;85.60;;;;;;5018741;28;20270;-88
2021/10/22 08:21:05;;;;;;;14.10;2.37;;;8.80;85.80;;;;;;5019221;28;20188;-90
2021/10/22 08:23:31;;;;;;;12.43;2.77;;;8.90;85.50;;;;;;5037000;28;20303;-88
2021/10/22 08:25:57;;;;;;;6.90;2.23;;;9.10;85.20;;;;;;5019414;28;20319;-87
2021/10/22 08:28:22;;;;;;;13.33;2.80;;;9.00;84.90;;;;;;5019125;28;20235;-89
2021/10/22 08:30:55;;;;;;;9.00;2.77;;;9.00;85.20;;;;;;5018661;28;20576;-89
2021/10/22 08:33:23;;;;;;;7.40;2.23;;;8.80;85.60;;;;;;5036344;28;20165;-90
2021/10/22 08:35:48;;;;;;;6.83;2.03;;;8.80;85.90;;;;;;5019330;28;20181;-88
2021/10/22 08:38:15;;;;;;;10.90;1.90;;;8.70;86.30;;;;;;5019629;28;20206;-88
2021/10/22 08:40:42;;;;;;;11.13;2.33;;;8.60;86.80;;;;;;5037043;28;20177;-89
2021/10/22 08:43:08;;;;;;;7.03;2.07;;;8.60;87.80;;;;;;5037159;28;20183;-88
2021/10/22 08:45:35;;;;;;;3.07;1.73;;;8.60;87.60;;;;;;5018351;28;20621;-88
2021/10/22 08:48:09;;;;;;;18.60;3.20;;;8.60;87.90;;;;;;5036740;28;20193;-88
2021/10/22 08:50:35;;;;;;;6.60;2.13;;;8.70;87.30;;;;;;5020709;28;20189;-89
2021/10/22 08:53:01;;;;;;;8.47;1.87;;;8.70;87.30;;;;;;5019557;28;20176;-89
2021/10/22 08:55:27;;;;;;;10.47;2.37;;;8.70;88.00;;;;;;5019355;28;20172;-90
2021/10/22 08:57:52;;;;;;;3.57;1.47;;;8.80;86.70;;;;;;5019313;28;20269;-89
2021/10/22 09:00:21;;;;;;;4.90;1.53;;;8.80;86.80;;;;;;5018851;28;20553;-89
2021/10/22 09:02:48;;;;;;;4.70;1.40;;;8.70;87.20;;;;;;5020450;28;20181;-88
2021/10/22 09:05:20;;;;;;;8.03;3.13;;;8.60;87.80;;;;;;5020777;28;20686;-89
2021/10/22 09:07:48;;;;;;;9.07;2.00;;;8.40;88.70;;;;;;5038951;28;20196;-88
2021/10/22 09:10:26;;;;;;;6.77;2.03;;;8.30;89.60;;;;;;5019711;28;20177;-87
2021/10/22 09:13:07;;;;;;;7.63;2.00;;;8.30;90.70;;;;;;5020863;28;20259;-88
2021/10/22 09:15:34;;;;;;;17.77;2.57;;;8.20;91.20;;;;;;5020953;28;20195;-88
2021/10/22 09:18:25;;;;;;;11.40;2.57;;;8.20;91.20;;;;;;5038567;28;20238;-88
2021/10/22 09:20:54;;;;;;;6.67;2.43;;;8.30;91.10;;;;;;5038343;28;20157;-88
2021/10/22 09:23:31;;;;;;;8.07;1.80;;;8.30;90.50;;;;;;5020196;28;20191;-88
2021/10/22 09:26:30;;;;;;;5.23;1.40;;;8.40;90.80;;;;;;5019992;28;20263;-88
2021/10/22 09:28:56;;;;;;;7.53;1.43;;;8.30;90.70;;;;;;5019447;28;20196;-88
2021/10/22 09:31:23;;;;;;;4.03;2.07;;;8.30;90.90;;;;;;5019933;28;20234;-88
2021/10/22 09:34:03;;;;;;;4.60;1.90;;;8.40;90.70;;;;;;5018993;28;20280;-89
2021/10/22 09:36:40;;;;;;;8.97;1.83;;;8.40;91.20;;;;;;5017848;28;20687;-89
2021/10/22 09:39:15;;;;;;;10.80;2.20;;;8.50;91.50;;;;;;5036201;28;20244;-88
2021/10/22 09:41:48;;;;;;;7.33;1.93;;;8.50;91.10;;;;;;5018667;28;20172;-89
2021/10/22 09:44:21;;;;;;;7.37;1.70;;;8.30;91.20;;;;;;5018901;28;20214;-88
2021/10/22 09:47:10;;;;;;;5.03;1.53;;;8.30;91.50;;;;;;5018231;28;20176;-89
2021/10/22 09:49:46;;;;;;;7.60;1.70;;;8.30;91.30;;;;;;5036243;28;20248;-88
2021/10/22 09:52:25;;;;;;;2.73;1.17;;;8.20;91.30;;;;;;5018511;28;20235;-88
2021/10/22 09:55:12;;;;;;;5.50;1.67;;;8.20;91.70;;;;;;5017322;28;20176;-89
2021/10/22 09:57:38;;;;;;;4.63;2.00;;;8.10;91.50;;;;;;5017951;28;20211;-89
2021/10/22 10:00:10;;;;;;;4.60;1.33;;;8.20;92.00;;;;;;5036015;28;20180;-88
2021/10/22 10:02:37;;;;;;;5.43;1.33;;;8.10;92.00;;;;;;5017109;28;20238;-87
2021/10/22 10:05:06;;;;;;;7.50;1.37;;;8.20;92.10;;;;;;5018148;28;20205;-88
2021/10/22 10:07:41;;;;;;;9.47;2.20;;;8.30;92.10;;;;;;5018512;28;20197;-89
2021/10/22 10:10:08;;;;;;;4.33;1.13;;;8.40;92.20;;;;;;5035832;28;20218;-88
2021/10/22 10:12:38;;;;;;;7.43;1.97;;;8.50;91.80;;;;;;5035856;28;20188;-89
2021/10/22 10:15:05;;;;;;;6.37;1.30;;;8.60;92.00;;;;;;5035005;28;20234;-88
2021/10/22 10:17:46;;;;;;;2.50;1.20;;;8.70;92.30;;;;;;5017701;28;20712;-88
2021/10/22 10:20:18;;;;;;;7.43;1.77;;;8.70;91.90;;;;;;5018852;28;20553;-88
2021/10/22 10:22:47;;;;;;;11.07;1.97;;;8.70;91.90;;;;;;5035870;28;20238;-87
2021/10/22 10:25:12;;;;;;;8.83;2.10;;;8.60;91.90;;;;;;5019846;28;20351;-87
2021/10/22 10:27:47;;;;;;;9.63;2.00;;;8.50;92.10;;;;;;5037608;28;20671;-87
2021/10/22 10:30:35;;;;;;;7.37;1.70;;;8.40;92.40;;;;;;5019195;28;20309;-88
2021/10/22 10:33:03;;;;;;;4.90;1.33;;;8.20;91.50;;;;;;5020900;28;20177;-86
2021/10/22 10:35:37;;;;;;;6.80;1.37;;;8.30;90.50;;;;;;5039069;28;20180;-86
2021/10/22 10:38:08;;;;;;;8.03;1.63;;;8.40;90.40;;;;;;5020159;28;20291;-87
2021/10/22 10:40:34;;;;;;;9.27;1.63;;;8.40;89.60;;;;;;5020215;28;20172;-87
2021/10/22 10:43:23;;;;;;;10.77;2.30;;;8.40;89.80;;;;;;5020248;28;20252;-87
2021/10/22 10:45:49;;;;;;;5.63;1.73;;;8.40;90.00;;;;;;5021342;28;20247;-86
2021/10/22 10:48:20;;;;;;;6.33;1.43;;;8.50;90.30;;;;;;5020564;28;20217;-86
2021/10/22 10:50:54;;;;;;;8.03;1.40;;;8.50;88.20;;;;;;5021847;28;20164;-87
2021/10/22 10:53:33;;;;;;;8.47;1.50;;;8.50;88.50;;;;;;5021895;28;20165;-86
2021/10/22 10:56:00;;;;;;;9.27;1.87;;;8.50;89.20;;;;;;5022007;28;20172;-87
2021/10/22 10:58:26;;;;;;;18.93;3.43;;;8.60;90.20;;;;;;5022725;28;20204;-86
2021/10/22 11:00:51;;;;;;;13.33;1.73;;;8.70;90.40;;;;;;5022286;28;20177;-87
2021/10/22 11:03:25;;;;;;;9.67;1.83;;;8.80;90.20;;;;;;5040495;28;20255;-87
2021/10/22 11:05:56;;;;;;;12.03;1.97;;;8.80;89.30;;;;;;5022834;28;20656;-86
2021/10/22 11:08:23;;;;;;;6.10;1.80;;;8.90;89.50;;;;;;5022126;28;20242;-86
2021/10/22 11:13:45;;;;;;;10.17;2.20;;;9.00;88.90;;;;;;5041555;28;20234;-87
2021/10/22 11:16:37;;;;;;;9.57;3.43;;;9.00;89.20;;;;;;5023688;28;20240;-87
2021/10/22 11:19:05;;;;;;;11.87;2.17;;;9.00;88.50;;;;;;5024213;28;20191;-87
2021/10/22 11:21:41;;;;;;;17.70;3.05;;;9.00;88.50;;;;;;5038397;28;20405;-88
2021/10/22 11:24:13;;;;;;;11.53;2.13;;;9.00;88.70;;;;;;5037446;28;20188;-88
2021/10/22 11:26:38;;;;;;;11.83;2.20;;;9.00;88.80;;;;;;5018385;28;20622;-89
2021/10/22 11:29:14;;;;;;;10.23;1.93;;;9.10;88.80;;;;;;5017071;28;20177;-88
2021/10/22 11:31:49;;;;;;;10.87;1.97;;;9.00;89.20;;;;;;5017506;28;20183;-88
2021/10/22 11:34:20;;;;;;;15.37;2.77;;;9.00;89.50;;;;;;5020927;28;20168;-88
2021/10/22 11:37:03;;;;;;;8.07;2.23;;;9.00;89.60;;;;;;5022159;28;20173;-88
2021/10/22 11:39:53;;;;;;;9.03;1.90;;;9.00;88.70;;;;;;5022868;28;20176;-88
2021/10/22 11:42:31;;;;;;;6.90;1.53;;;9.10;88.00;;;;;;5023304;28;20176;-88
2021/10/22 11:45:05;;;;;;;10.13;2.30;;;9.00;86.10;;;;;;5041698;28;20191;-87
2021/10/22 11:47:37;;;;;;;12.67;2.30;;;9.00;85.10;;;;;;5021720;28;20196;-88
2021/10/22 11:50:22;;;;;;;10.50;1.77;;;8.90;86.40;;;;;;5021162;28;20184;-87
2021/10/22 11:52:57;;;;;;;7.47;1.60;;;8.50;85.60;;;;;;5020833;28;20538;-88
2021/10/22 11:55:24;;;;;;;6.10;1.73;;;8.20;86.10;;;;;;5020184;28;20172;-88
2021/10/22 11:57:55;;;;;;;6.30;2.50;;;7.70;86.80;;;;;;5038576;28;20197;-88
2021/10/22 12:00:22;;;;;;;9.60;1.87;;;7.80;88.10;;;;;;5038333;28;20164;-88
2021/10/22 12:02:48;;;;;;;4.60;1.30;;;7.80;87.90;;;;;;5037183;28;20172;-86
2021/10/22 12:05:15;;;;;;;9.40;2.10;;;7.90;87.10;;;;;;5019439;28;20258;-89
2021/10/22 12:07:44;;;;;;;10.90;1.73;;;7.80;87.80;;;;;;5019631;28;20204;-89
2021/10/22 12:10:15;;;;;;;12.40;2.00;;;7.80;88.80;;;;;;5019383;28;20169;-89
2021/10/22 12:12:47;;;;;;;2.90;1.00;;;7.90;89.50;;;;;;5019362;28;20173;-89
2021/10/22 12:15:25;;;;;;;9.87;1.50;;;7.80;89.30;;;;;;5036828;28;20218;-89
2021/10/22 12:17:59;;;;;;;8.53;2.80;;;7.80;90.20;;;;;;5036354;28;20218;-89
2021/10/22 12:20:25;;;;;;;12.07;3.47;;;7.90;90.70;;;;;;5018699;28;20673;-89
2021/10/22 12:22:58;;;;;;;12.47;5.07;;;8.00;90.70;;;;;;5036415;28;20556;-90
2021/10/22 12:25:24;;;;;;;10.60;4.17;;;8.00;90.70;;;;;;5018600;28;20238;-88
2021/10/22 12:27:52;;;;;;;9.13;4.50;;;8.00;90.80;;;;;;5018373;28;20197;-89
2021/10/22 12:30:20;;;;;;;14.50;3.53;;;8.00;90.80;;;;;;5018262;28;20680;-88
2021/10/22 12:32:51;;;;;;;10.63;2.03;;;8.00;90.80;;;;;;5018887;28;20641;-90
2021/10/22 12:35:28;;;;;;;12.77;2.97;;;8.00;91.00;;;;;;5018506;28;20251;-88
2021/10/22 12:38:04;;;;;;;10.10;1.80;;;8.00;91.30;;;;;;5018249;28;20645;-89
2021/10/22 12:40:38;;;;;;;9.03;1.90;;;8.00;91.40;;;;;;5018568;28;20180;-89
2021/10/22 12:43:07;;;;;;;9.17;1.60;;;8.00;91.10;;;;;;5018330;28;20238;-89
2021/10/22 12:45:38;;;;;;;8.30;1.80;;;8.00;91.30;;;;;;5017632;28;20277;-88
2021/10/22 12:48:07;;;;;;;8.80;1.70;;;8.10;91.10;;;;;;5018824;28;20296;-88
2021/10/22 12:50:35;;;;;;;7.40;2.03;;;8.10;90.90;;;;;;5018829;28;20207;-89
2021/10/22 12:53:05;;;;;;;9.27;1.80;;;8.20;90.90;;;;;;5017823;28;20256;-89
2021/10/22 12:55:31;;;;;;;8.77;1.70;;;8.20;90.50;;;;;;5017998;28;20185;-88
2021/10/22 12:58:13;;;;;;;7.50;1.50;;;8.10;90.70;;;;;;5017963;28;20297;-89
2021/10/22 13:00:40;;;;;;;12.07;1.80;;;8.00;91.30;;;;;;5035728;28;20180;-88
2021/10/22 13:03:07;;;;;;;10.30;2.30;;;8.20;91.60;;;;;;5035481;28;20175;-88
2021/10/22 13:05:36;;;;;;;6.70;2.03;;;8.20;91.80;;;;;;5017646;28;20212;-88